sensor_id;sensor_type;location;lat;lon;timestamp;pressure;altitude;pressure_sealevel;temperature;humidity
73297;BME280;61524;50.938;11.396;2022-10-30T00:00:17;99408.34;;;10.02;100.00
73297;BME280;61524;50.938;11.396;2022-10-30T00:02:45;99414.94;;;9.99;100.00
73297;BME280;61524;50.938;11.396;2022-10-30T00:05:10;99422.38;;;10.09;100.00
73297;BME280;61524;50.938;11.396;2022-10-30T00:07:36;99417.59;;;10.11;100.00
73297;BME280;61524;50.938;11.396;2022-10-30T00:10:01;99414.94;;;10.11;100.00
73297;BME280;61524;50.938;11.396;2022-10-30T00:12:27;99408.22;;;10.09;100.00
73297;BME280;61524;50.938;11.396;2022-10-30T00:14:52;99402.66;;;9.98;100.00
73297;BME280;61524;50.938;11.396;2022-10-30T00:17:18;99403.56;;;10.04;100.00
73297;BME280;61524;50.938;11.396;2022-10-30T00:19:43;99403.34;;;10.06;100.00
73297;BME280;61524;50.938;11.396;2022-10-30T00:22:09;99412.75;;;10.08;100.00
73297;BME280;61524;50.938;11.396;2022-10-30T00:24:34;99401.16;;;10.03;100.00
73297;BME280;61524;50.938;11.396;2022-10-30T00:27:00;99406.72;;;10.13;100.00
73297;BME280;61524;50.938;11.396;2022-10-30T00:29:25;99404.75;;;10.08;100.00
73297;BME280;61524;50.938;11.396;2022-10-30T00:31:51;99395.47;;;9.99;100.00
73297;BME280;61524;50.938;11.396;2022-10-30T00:34:18;99401.47;;;10.06;100.00
73297;BME280;61524;50.938;11.396;2022-10-30T00:36:44;99384.44;;;10.07;100.00
73297;BME280;61524;50.938;11.396;2022-10-30T00:39:09;99395.44;;;10.11;100.00
73297;BME280;61524;50.938;11.396;2022-10-30T00:41:35;99390.56;;;10.19;100.00
73297;BME280;61524;50.938;11.396;2022-10-30T00:47:00;99403.22;;;10.12;100.00
73297;BME280;61524;50.938;11.396;2022-10-30T00:49:33;99386.97;;;10.14;100.00
73297;BME280;61524;50.938;11.396;2022-10-30T00:52:02;99391.84;;;10.05;100.00
73297;BME280;61524;50.938;11.396;2022-10-30T00:54:30;99387.91;;;10.08;100.00
73297;BME280;61524;50.938;11.396;2022-10-30T00:56:57;99386.28;;;9.95;100.00
73297;BME280;61524;50.938;11.396;2022-10-30T00:59:31;99386.28;;;9.95;100.00
73297;BME280;61524;50.938;11.396;2022-10-30T01:01:57;99385.47;;;10.06;100.00
73297;BME280;61524;50.938;11.396;2022-10-30T01:04:25;99394.97;;;10.14;100.00
73297;BME280;61524;50.938;11.396;2022-10-30T01:06:51;99382.91;;;10.23;100.00
73297;BME280;61524;50.938;11.396;2022-10-30T01:09:21;99375.91;;;10.22;100.00
73297;BME280;61524;50.938;11.396;2022-10-30T01:11:47;99374.19;;;10.28;100.00
73297;BME280;61524;50.938;11.396;2022-10-30T01:14:15;99376.50;;;10.36;100.00
73297;BME280;61524;50.938;11.396;2022-10-30T01:19:24;99366.88;;;10.35;100.00
73297;BME280;61524;50.938;11.396;2022-10-30T01:39:13;99355.81;;;10.43;100.00
73297;BME280;61524;50.938;11.396;2022-10-30T01:41:40;99343.66;;;10.35;100.00
73297;BME280;61524;50.938;11.396;2022-10-30T01:44:14;99353.78;;;10.33;100.00
73297;BME280;61524;50.938;11.396;2022-10-30T01:52:27;99343.19;;;10.27;100.00
73297;BME280;61524;50.938;11.396;2022-10-30T01:57:39;99336.25;;;10.25;100.00
73297;BME280;61524;50.938;11.396;2022-10-30T02:00:09;99335.78;;;10.29;100.00
73297;BME280;61524;50.938;11.396;2022-10-30T02:02:36;99349.00;;;10.35;100.00
73297;BME280;61524;50.938;11.396;2022-10-30T02:05:03;99336.88;;;10.44;100.00
73297;BME280;61524;50.938;11.396;2022-10-30T02:07:30;99342.22;;;10.44;100.00
73297;BME280;61524;50.938;11.396;2022-10-30T02:09:55;99332.34;;;10.45;100.00
73297;BME280;61524;50.938;11.396;2022-10-30T02:12:21;99340.69;;;10.48;100.00
73297;BME280;61524;50.938;11.396;2022-10-30T02:14:52;99321.50;;;10.51;100.00
73297;BME280;61524;50.938;11.396;2022-10-30T02:17:19;99332.66;;;10.60;100.00
73297;BME280;61524;50.938;11.396;2022-10-30T02:19:45;99341.41;;;10.72;100.00
73297;BME280;61524;50.938;11.396;2022-10-30T02:22:10;99346.50;;;10.74;100.00
73297;BME280;61524;50.938;11.396;2022-10-30T02:24:36;99336.53;;;10.69;100.00
73297;BME280;61524;50.938;11.396;2022-10-30T02:27:02;99342.84;;;10.63;100.00
73297;BME280;61524;50.938;11.396;2022-10-30T02:29:28;99333.97;;;10.46;100.00
73297;BME280;61524;50.938;11.396;2022-10-30T02:31:54;99342.31;;;10.49;100.00
73297;BME280;61524;50.938;11.396;2022-10-30T02:34:19;99344.66;;;10.46;100.00
73297;BME280;61524;50.938;11.396;2022-10-30T02:36:44;99346.38;;;10.52;100.00
73297;BME280;61524;50.938;11.396;2022-10-30T02:39:10;99349.94;;;10.58;100.00
73297;BME280;61524;50.938;11.396;2022-10-30T02:41:35;99342.28;;;10.61;100.00
73297;BME280;61524;50.938;11.396;2022-10-30T02:44:01;99342.50;;;10.60;100.00
73297;BME280;61524;50.938;11.396;2022-10-30T02:46:27;99337.25;;;10.65;100.00
73297;BME280;61524;50.938;11.396;2022-10-30T02:48:52;99342.59;;;10.65;100.00
73297;BME280;61524;50.938;11.396;2022-10-30T02:51:17;99328.22;;;10.54;100.00
73297;BME280;61524;50.938;11.396;2022-10-30T02:53:43;99323.78;;;10.60;100.00
73297;BME280;61524;50.938;11.396;2022-10-30T02:56:11;99332.53;;;10.55;100.00
73297;BME280;61524;50.938;11.396;2022-10-30T02:58:37;99327.81;;;10.45;100.00
73297;BME280;61524;50.938;11.396;2022-10-30T03:01:14;99320.84;;;10.44;100.00
73297;BME280;61524;50.938;11.396;2022-10-30T03:03:40;99319.66;;;10.52;100.00
73297;BME280;61524;50.938;11.396;2022-10-30T03:06:09;99332.94;;;10.64;100.00
73297;BME280;61524;50.938;11.396;2022-10-30T03:08:35;99325.63;;;10.71;100.00
73297;BME280;61524;50.938;11.396;2022-10-30T03:11:11;99328.09;;;10.61;100.00
73297;BME280;61524;50.938;11.396;2022-10-30T03:13:39;99329.13;;;10.60;100.00
73297;BME280;61524;50.938;11.396;2022-10-30T03:16:08;99328.41;;;10.64;100.00
73297;BME280;61524;50.938;11.396;2022-10-30T03:18:34;99329.28;;;10.53;100.00
73297;BME280;61524;50.938;11.396;2022-10-30T03:21:01;99328.00;;;10.56;100.00
73297;BME280;61524;50.938;11.396;2022-10-30T03:23:27;99322.56;;;10.50;100.00
73297;BME280;61524;50.938;11.396;2022-10-30T03:25:55;99325.47;;;10.49;100.00
73297;BME280;61524;50.938;11.396;2022-10-30T03:28:22;99321.16;;;10.48;100.00
73297;BME280;61524;50.938;11.396;2022-10-30T03:30:49;99326.50;;;10.48;100.00
73297;BME280;61524;50.938;11.396;2022-10-30T03:33:15;99320.06;;;10.44;100.00
73297;BME280;61524;50.938;11.396;2022-10-30T03:35:43;99329.78;;;10.50;100.00
73297;BME280;61524;50.938;11.396;2022-10-30T03:38:09;99335.13;;;10.50;100.00
73297;BME280;61524;50.938;11.396;2022-10-30T03:40:35;99330.81;;;10.49;100.00
73297;BME280;61524;50.938;11.396;2022-10-30T03:43:00;99328.63;;;10.46;100.00
73297;BME280;61524;50.938;11.396;2022-10-30T03:45:25;99325.41;;;10.32;100.00
73297;BME280;61524;50.938;11.396;2022-10-30T03:47:51;99316.97;;;10.23;100.00
73297;BME280;61524;50.938;11.396;2022-10-30T03:50:16;99315.69;;;10.26;100.00
73297;BME280;61524;50.938;11.396;2022-10-30T03:52:42;99332.31;;;10.28;100.00
73297;BME280;61524;50.938;11.396;2022-10-30T03:55:07;99321.84;;;10.27;100.00
73297;BME280;61524;50.938;11.396;2022-10-30T03:57:36;99310.09;;;10.28;100.00
73297;BME280;61524;50.938;11.396;2022-10-30T04:00:02;99297.81;;;10.27;100.00
73297;BME280;61524;50.938;11.396;2022-10-30T04:02:27;99315.06;;;10.36;100.00
73297;BME280;61524;50.938;11.396;2022-10-30T04:04:53;99310.38;;;10.43;100.00
73297;BME280;61524;50.938;11.396;2022-10-30T04:07:18;99316.44;;;10.38;100.00
73297;BME280;61524;50.938;11.396;2022-10-30T04:09:43;99322.13;;;10.42;100.00
73297;BME280;61524;50.938;11.396;2022-10-30T04:12:09;99314.72;;;10.44;100.00
73297;BME280;61524;50.938;11.396;2022-10-30T04:14:34;99299.81;;;10.48;100.00
73297;BME280;61524;50.938;11.396;2022-10-30T04:17:00;99317.94;;;10.46;100.00
73297;BME280;61524;50.938;11.396;2022-10-30T04:19:25;99322.22;;;10.47;100.00
73297;BME280;61524;50.938;11.396;2022-10-30T04:21:50;99316.88;;;10.47;100.00
73297;BME280;61524;50.938;11.396;2022-10-30T04:24:16;99311.88;;;10.50;100.00
73297;BME280;61524;50.938;11.396;2022-10-30T04:26:43;99326.38;;;10.55;100.00
73297;BME280;61524;50.938;11.396;2022-10-30T04:29:08;99310.84;;;10.51;100.00
73297;BME280;61524;50.938;11.396;2022-10-30T04:31:34;99306.09;;;10.42;100.00
73297;BME280;61524;50.938;11.396;2022-10-30T04:33:59;99314.38;;;10.40;100.00
73297;BME280;61524;50.938;11.396;2022-10-30T04:36:25;99308.22;;;10.40;100.00
73297;BME280;61524;50.938;11.396;2022-10-30T04:38:57;99307.16;;;10.41;100.00
73297;BME280;61524;50.938;11.396;2022-10-30T04:41:22;99312.69;;;10.51;100.00
73297;BME280;61524;50.938;11.396;2022-10-30T04:43:48;99317.44;;;10.49;100.00
73297;BME280;61524;50.938;11.396;2022-10-30T04:46:14;99318.19;;;10.44;100.00
73297;BME280;61524;50.938;11.396;2022-10-30T04:48:41;99309.28;;;10.39;100.00
73297;BME280;61524;50.938;11.396;2022-10-30T04:51:07;99313.41;;;10.46;100.00
73297;BME280;61524;50.938;11.396;2022-10-30T04:53:33;99313.16;;;10.48;100.00
73297;BME280;61524;50.938;11.396;2022-10-30T04:55:59;99323.28;;;10.46;100.00
73297;BME280;61524;50.938;11.396;2022-10-30T04:58:24;99324.44;;;10.50;100.00
73297;BME280;61524;50.938;11.396;2022-10-30T05:00:50;99325.47;;;10.49;100.00
73297;BME280;61524;50.938;11.396;2022-10-30T05:03:23;99321.16;;;10.48;100.00
73297;BME280;61524;50.938;11.396;2022-10-30T05:06:14;99328.97;;;10.49;100.00
73297;BME280;61524;50.938;11.396;2022-10-30T05:08:41;99311.63;;;10.52;100.00
73297;BME280;61524;50.938;11.396;2022-10-30T05:11:06;99320.72;;;10.51;100.00
73297;BME280;61524;50.938;11.396;2022-10-30T05:13:32;99308.50;;;10.55;100.00
73297;BME280;61524;50.938;11.396;2022-10-30T05:15:57;99309.59;;;10.71;100.00
73297;BME280;61524;50.938;11.396;2022-10-30T05:18:23;99323.16;;;10.69;100.00
73297;BME280;61524;50.938;11.396;2022-10-30T05:20:48;99308.81;;;10.59;100.00
73297;BME280;61524;50.938;11.396;2022-10-30T05:23:14;99321.47;;;10.63;100.00
73297;BME280;61524;50.938;11.396;2022-10-30T05:25:39;99310.34;;;10.55;100.00
73297;BME280;61524;50.938;11.396;2022-10-30T05:28:05;99313.41;;;10.46;100.00
73297;BME280;61524;50.938;11.396;2022-10-30T05:30:32;99306.53;;;10.50;100.00
73297;BME280;61524;50.938;11.396;2022-10-30T05:33:03;99303.06;;;10.50;100.00
73297;BME280;61524;50.938;11.396;2022-10-30T05:35:29;99300.06;;;10.46;100.00
73297;BME280;61524;50.938;11.396;2022-10-30T05:37:57;99307.06;;;10.36;100.00
73297;BME280;61524;50.938;11.396;2022-10-30T05:40:23;99305.91;;;10.32;100.00
73297;BME280;61524;50.938;11.396;2022-10-30T05:42:49;99294.06;;;10.28;100.00
73297;BME280;61524;50.938;11.396;2022-10-30T05:45:15;99300.66;;;10.37;100.00
73297;BME280;61524;50.938;11.396;2022-10-30T05:47:40;99295.22;;;10.32;100.00
73297;BME280;61524;50.938;11.396;2022-10-30T05:50:07;99297.81;;;10.27;100.00
73297;BME280;61524;50.938;11.396;2022-10-30T05:52:32;99298.16;;;10.18;100.00
73297;BME280;61524;50.938;11.396;2022-10-30T05:54:58;99298.75;;;10.09;100.00
73297;BME280;61524;50.938;11.396;2022-10-30T05:57:23;99305.31;;;10.01;100.00
73297;BME280;61524;50.938;11.396;2022-10-30T05:59:49;99309.13;;;9.93;100.00
73297;BME280;61524;50.938;11.396;2022-10-30T06:02:17;99312.75;;;9.76;100.00
73297;BME280;61524;50.938;11.396;2022-10-30T06:04:43;99313.13;;;9.56;100.00
73297;BME280;61524;50.938;11.396;2022-10-30T06:07:09;99319.63;;;9.48;100.00
73297;BME280;61524;50.938;11.396;2022-10-30T06:09:34;99327.84;;;9.46;100.00
73297;BME280;61524;50.938;11.396;2022-10-30T06:12:00;99322.75;;;9.45;100.00
73297;BME280;61524;50.938;11.396;2022-10-30T06:14:25;99330.19;;;9.43;100.00
73297;BME280;61524;50.938;11.396;2022-10-30T06:16:51;99333.06;;;9.41;100.00
73297;BME280;61524;50.938;11.396;2022-10-30T06:19:16;99324.25;;;9.41;100.00
73297;BME280;61524;50.938;11.396;2022-10-30T06:21:42;99332.84;;;9.43;100.00
73297;BME280;61524;50.938;11.396;2022-10-30T06:24:07;99308.97;;;9.36;100.00
73297;BME280;61524;50.938;11.396;2022-10-30T06:26:33;99328.09;;;9.45;100.00
73297;BME280;61524;50.938;11.396;2022-10-30T06:28:58;99328.09;;;9.45;100.00
73297;BME280;61524;50.938;11.396;2022-10-30T06:31:23;99327.16;;;9.51;100.00
73297;BME280;61524;50.938;11.396;2022-10-30T06:33:49;99334.09;;;9.52;100.00
73297;BME280;61524;50.938;11.396;2022-10-30T06:36:14;99326.34;;;9.51;100.00
73297;BME280;61524;50.938;11.396;2022-10-30T06:38:41;99331.00;;;9.55;100.00
73297;BME280;61524;50.938;11.396;2022-10-30T06:41:07;99330.75;;;9.57;100.00
73297;BME280;61524;50.938;11.396;2022-10-30T06:43:33;99323.56;;;9.45;100.00
73297;BME280;61524;50.938;11.396;2022-10-30T06:45:58;99325.91;;;9.54;100.00
73297;BME280;61524;50.938;11.396;2022-10-30T06:48:24;99338.06;;;9.61;100.00
73297;BME280;61524;50.938;11.396;2022-10-30T06:50:53;99340.38;;;9.69;100.00
73297;BME280;61524;50.938;11.396;2022-10-30T06:53:19;99335.16;;;9.75;100.00
73297;BME280;61524;50.938;11.396;2022-10-30T06:55:44;99330.97;;;9.79;100.00
73297;BME280;61524;50.938;11.396;2022-10-30T06:58:17;99336.78;;;9.76;100.00
73297;BME280;61524;50.938;11.396;2022-10-30T07:00:43;99340.63;;;9.80;100.00
73297;BME280;61524;50.938;11.396;2022-10-30T07:03:08;99345.13;;;9.91;100.00
73297;BME280;61524;50.938;11.396;2022-10-30T07:05:33;99346.84;;;9.97;100.00
73297;BME280;61524;50.938;11.396;2022-10-30T07:07:59;99344.50;;;10.00;100.00
73297;BME280;61524;50.938;11.396;2022-10-30T07:10:24;99329.50;;;10.11;100.00
73297;BME280;61524;50.938;11.396;2022-10-30T07:12:54;99344.91;;;10.21;100.00
73297;BME280;61524;50.938;11.396;2022-10-30T07:15:20;99341.13;;;10.29;100.00
73297;BME280;61524;50.938;11.396;2022-10-30T07:17:59;99351.50;;;10.42;100.00
73297;BME280;61524;50.938;11.396;2022-10-30T07:20:26;99362.31;;;10.47;100.00
73297;BME280;61524;50.938;11.396;2022-10-30T07:22:52;99349.34;;;10.39;100.00
73297;BME280;61524;50.938;11.396;2022-10-30T07:25:18;99351.28;;;10.43;100.00
73297;BME280;61524;50.938;11.396;2022-10-30T07:27:48;99355.34;;;10.46;100.00
73297;BME280;61524;50.938;11.396;2022-10-30T07:30:15;99355.19;;;10.52;100.00
73297;BME280;61524;50.938;11.396;2022-10-30T07:32:41;99363.88;;;10.60;100.00
73297;BME280;61524;50.938;11.396;2022-10-30T07:35:09;99370.94;;;10.66;100.00
73297;BME280;61524;50.938;11.396;2022-10-30T07:37:35;99368.03;;;10.67;100.00
73297;BME280;61524;50.938;11.396;2022-10-30T07:40:01;99368.88;;;10.85;100.00
73297;BME280;61524;50.938;11.396;2022-10-30T07:42:26;99373.75;;;10.88;100.00
73297;BME280;61524;50.938;11.396;2022-10-30T07:44:52;99369.69;;;10.85;100.00
73297;BME280;61524;50.938;11.396;2022-10-30T07:47:17;99379.09;;;10.88;100.00
73297;BME280;61524;50.938;11.396;2022-10-30T07:49:43;99377.56;;;10.92;100.00
73297;BME280;61524;50.938;11.396;2022-10-30T07:52:08;99390.44;;;10.95;100.00
73297;BME280;61524;50.938;11.396;2022-10-30T07:54:33;99379.59;;;11.01;100.00
73297;BME280;61524;50.938;11.396;2022-10-30T07:56:59;99386.66;;;11.08;100.00
73297;BME280;61524;50.938;11.396;2022-10-30T07:59:25;99382.44;;;11.12;100.00
73297;BME280;61524;50.938;11.396;2022-10-30T08:01:50;99395.66;;;11.18;100.00
73297;BME280;61524;50.938;11.396;2022-10-30T08:04:16;99387.72;;;11.23;100.00
73297;BME280;61524;50.938;11.396;2022-10-30T08:06:42;99389.38;;;11.41;100.00
73297;BME280;61524;50.938;11.396;2022-10-30T08:09:08;99400.06;;;11.58;100.00
73297;BME280;61524;50.938;11.396;2022-10-30T08:11:33;99388.78;;;11.56;100.00
73297;BME280;61524;50.938;11.396;2022-10-30T08:13:59;99377.53;;;11.54;100.00
73297;BME280;61524;50.938;11.396;2022-10-30T08:16:25;99395.03;;;11.62;100.00
73297;BME280;61524;50.938;11.396;2022-10-30T08:18:51;99395.03;;;11.78;100.00
73297;BME280;61524;50.938;11.396;2022-10-30T08:21:16;99392.69;;;11.82;100.00
73297;BME280;61524;50.938;11.396;2022-10-30T08:23:42;99391.78;;;11.93;100.00
73297;BME280;61524;50.938;11.396;2022-10-30T08:26:07;99394.13;;;12.06;100.00
73297;BME280;61524;50.938;11.396;2022-10-30T08:28:33;99395.69;;;12.24;100.00
73297;BME280;61524;50.938;11.396;2022-10-30T08:30:59;99394.00;;;12.40;100.00
73297;BME280;61524;50.938;11.396;2022-10-30T08:33:24;99395.78;;;12.56;99.90
73297;BME280;61524;50.938;11.396;2022-10-30T08:35:54;99386.88;;;12.73;99.67
73297;BME280;61524;50.938;11.396;2022-10-30T08:38:23;99399.09;;;12.91;99.09
73297;BME280;61524;50.938;11.396;2022-10-30T08:40:49;99399.25;;;13.06;98.71
73297;BME280;61524;50.938;11.396;2022-10-30T08:43:15;99406.41;;;13.22;98.74
73297;BME280;61524;50.938;11.396;2022-10-30T08:45:40;99407.63;;;13.36;98.29
73297;BME280;61524;50.938;11.396;2022-10-30T08:48:09;99401.84;;;13.55;97.87
73297;BME280;61524;50.938;11.396;2022-10-30T08:50:35;99393.69;;;13.77;97.37
73297;BME280;61524;50.938;11.396;2022-10-30T08:53:02;99379.28;;;13.93;98.29
73297;BME280;61524;50.938;11.396;2022-10-30T08:55:29;99382.69;;;14.21;97.21
73297;BME280;61524;50.938;11.396;2022-10-30T08:57:54;99392.44;;;14.37;96.99
73297;BME280;61524;50.938;11.396;2022-10-30T09:00:20;99392.50;;;14.52;96.25
73297;BME280;61524;50.938;11.396;2022-10-30T09:02:45;99403.84;;;14.64;94.82
73297;BME280;61524;50.938;11.396;2022-10-30T09:05:11;99399.31;;;14.80;94.02
73297;BME280;61524;50.938;11.396;2022-10-30T09:07:36;99392.34;;;14.94;93.26
73297;BME280;61524;50.938;11.396;2022-10-30T09:10:03;99393.44;;;15.09;92.86
73297;BME280;61524;50.938;11.396;2022-10-30T09:12:29;99397.50;;;15.21;90.44
73297;BME280;61524;50.938;11.396;2022-10-30T09:14:55;99389.72;;;15.35;88.82
73297;BME280;61524;50.938;11.396;2022-10-30T09:17:20;99394.53;;;15.59;88.00
73297;BME280;61524;50.938;11.396;2022-10-30T09:19:45;99400.75;;;15.69;87.25
73297;BME280;61524;50.938;11.396;2022-10-30T09:22:11;99394.56;;;15.79;87.21
73297;BME280;61524;50.938;11.396;2022-10-30T09:24:36;99393.72;;;15.94;85.83
73297;BME280;61524;50.938;11.396;2022-10-30T09:27:04;99400.94;;;16.09;85.02
73297;BME280;61524;50.938;11.396;2022-10-30T09:29:29;99398.78;;;16.21;84.07
73297;BME280;61524;50.938;11.396;2022-10-30T09:31:56;99397.34;;;16.39;83.83
73297;BME280;61524;50.938;11.396;2022-10-30T09:34:21;99407.59;;;16.42;85.61
73297;BME280;61524;50.938;11.396;2022-10-30T09:36:47;99407.31;;;16.48;86.27
73297;BME280;61524;50.938;11.396;2022-10-30T09:39:13;99406.72;;;16.57;86.21
73297;BME280;61524;50.938;11.396;2022-10-30T09:50:34;99408.13;;;17.03;85.91
73297;BME280;61524;50.938;11.396;2022-10-30T09:53:10;99412.31;;;17.20;84.96
73297;BME280;61524;50.938;11.396;2022-10-30T09:56:05;99415.97;;;17.39;83.99
73297;BME280;61524;50.938;11.396;2022-10-30T10:01:41;99416.03;;;17.63;81.86
73297;BME280;61524;50.938;11.396;2022-10-30T10:04:32;99417.84;;;17.78;80.03
73297;BME280;61524;50.938;11.396;2022-10-30T10:07:03;99411.84;;;17.81;81.13
73297;BME280;61524;50.938;11.396;2022-10-30T10:09:33;99412.78;;;17.95;80.46
73297;BME280;61524;50.938;11.396;2022-10-30T10:12:10;99415.16;;;18.02;79.17
73297;BME280;61524;50.938;11.396;2022-10-30T10:14:41;99405.63;;;18.09;78.75
73297;BME280;61524;50.938;11.396;2022-10-30T10:17:13;99402.06;;;18.14;78.81
73297;BME280;61524;50.938;11.396;2022-10-30T10:19:47;99400.44;;;18.37;77.30
73297;BME280;61524;50.938;11.396;2022-10-30T10:38:25;99378.44;;;18.68;75.97
73297;BME280;61524;50.938;11.396;2022-10-30T10:41:38;99377.28;;;18.74;76.42
73297;BME280;61524;50.938;11.396;2022-10-30T10:52:09;99369.22;;;19.06;74.75
73297;BME280;61524;50.938;11.396;2022-10-30T10:54:41;99358.22;;;19.17;75.78
73297;BME280;61524;50.938;11.396;2022-10-30T10:57:24;99355.94;;;19.24;73.05
73297;BME280;61524;50.938;11.396;2022-10-30T10:59:55;99352.44;;;19.23;73.97
73297;BME280;61524;50.938;11.396;2022-10-30T11:04:52;99347.25;;;19.40;72.31
73297;BME280;61524;50.938;11.396;2022-10-30T11:09:47;99337.44;;;19.58;70.82
73297;BME280;61524;50.938;11.396;2022-10-30T11:12:26;99344.13;;;19.66;72.03
73297;BME280;61524;50.938;11.396;2022-10-30T11:14:52;99344.72;;;19.63;71.92
73297;BME280;61524;50.938;11.396;2022-10-30T11:17:25;99337.81;;;19.71;72.30
73297;BME280;61524;50.938;11.396;2022-10-30T11:23:34;99334.50;;;20.01;69.33
73297;BME280;61524;50.938;11.396;2022-10-30T11:26:01;99329.47;;;20.22;68.77
73297;BME280;61524;50.938;11.396;2022-10-30T11:31:37;99319.59;;;20.54;68.12
73297;BME280;61524;50.938;11.396;2022-10-30T11:36:49;99324.28;;;20.76;69.13
73297;BME280;61524;50.938;11.396;2022-10-30T11:39:20;99316.00;;;20.81;69.21
73297;BME280;61524;50.938;11.396;2022-10-30T11:44:28;99317.59;;;20.82;68.46
73297;BME280;61524;50.938;11.396;2022-10-30T11:46:55;99320.31;;;20.82;68.79
73297;BME280;61524;50.938;11.396;2022-10-30T11:50:03;99316.53;;;20.83;69.62
73297;BME280;61524;50.938;11.396;2022-10-30T11:52:36;99316.88;;;20.90;69.37
73297;BME280;61524;50.938;11.396;2022-10-30T11:57:49;99311.22;;;21.00;68.86
73297;BME280;61524;50.938;11.396;2022-10-30T12:00:24;99309.53;;;21.13;68.41
73297;BME280;61524;50.938;11.396;2022-10-30T12:02:55;99310.22;;;21.18;67.77
73297;BME280;61524;50.938;11.396;2022-10-30T12:07:50;99311.63;;;21.16;68.18
73297;BME280;61524;50.938;11.396;2022-10-30T12:10:27;99307.56;;;21.27;63.34
73297;BME280;61524;50.938;11.396;2022-10-30T12:12:53;99300.97;;;21.42;62.14
73297;BME280;61524;50.938;11.396;2022-10-30T12:15:23;99314.38;;;21.38;63.12
73297;BME280;61524;50.938;11.396;2022-10-30T12:18:01;99302.81;;;21.33;67.27
73297;BME280;61524;50.938;11.396;2022-10-30T12:20:28;99299.19;;;21.46;66.69
73297;BME280;61524;50.938;11.396;2022-10-30T12:22:54;99295.88;;;21.49;68.25
73297;BME280;61524;50.938;11.396;2022-10-30T12:25:24;99298.72;;;21.44;68.06
73297;BME280;61524;50.938;11.396;2022-10-30T12:28:11;99292.47;;;21.43;66.37
73297;BME280;61524;50.938;11.396;2022-10-30T12:30:46;99295.94;;;21.66;67.16
73297;BME280;61524;50.938;11.396;2022-10-30T12:36:14;99287.97;;;21.79;65.83
73297;BME280;61524;50.938;11.396;2022-10-30T12:39:02;99302.22;;;21.75;65.94
73297;BME280;61524;50.938;11.396;2022-10-30T12:41:38;99301.09;;;21.77;65.08
73297;BME280;61524;50.938;11.396;2022-10-30T12:44:15;99294.91;;;21.93;62.77
73297;BME280;61524;50.938;11.396;2022-10-30T12:47:00;99293.41;;;21.79;63.35
73297;BME280;61524;50.938;11.396;2022-10-30T12:49:40;99288.50;;;21.81;62.77
73297;BME280;61524;50.938;11.396;2022-10-30T12:52:18;99294.22;;;21.79;61.65
73297;BME280;61524;50.938;11.396;2022-10-30T12:57:35;99281.81;;;22.04;58.99
73297;BME280;61524;50.938;11.396;2022-10-30T13:05:44;99289.91;;;22.26;57.39
73297;BME280;61524;50.938;11.396;2022-10-30T13:10:52;99299.41;;;21.98;59.56
73297;BME280;61524;50.938;11.396;2022-10-30T13:13:33;99291.06;;;21.94;60.30
73297;BME280;61524;50.938;11.396;2022-10-30T13:16:02;99285.81;;;21.98;62.06
73297;BME280;61524;50.938;11.396;2022-10-30T13:18:30;99276.84;;;22.06;61.62
73297;BME280;61524;50.938;11.396;2022-10-30T13:23:40;99292.19;;;21.93;58.91
73297;BME280;61524;50.938;11.396;2022-10-30T13:29:12;99277.97;;;22.05;57.33
73297;BME280;61524;50.938;11.396;2022-10-30T13:40:31;99278.75;;;21.88;56.79
73297;BME280;61524;50.938;11.396;2022-10-30T13:43:21;99278.78;;;21.97;63.09
73297;BME280;61524;50.938;11.396;2022-10-30T13:46:12;99286.94;;;21.97;70.46
73297;BME280;61524;50.938;11.396;2022-10-30T13:51:32;99283.34;;;21.79;72.07
73297;BME280;61524;50.938;11.396;2022-10-30T13:54:21;99283.66;;;21.78;71.94
73297;BME280;61524;50.938;11.396;2022-10-30T13:56:48;99285.25;;;21.70;72.77
73297;BME280;61524;50.938;11.396;2022-10-30T13:59:25;99295.59;;;21.59;73.75
73297;BME280;61524;50.938;11.396;2022-10-30T14:02:27;99282.28;;;21.49;73.81
73297;BME280;61524;50.938;11.396;2022-10-30T14:07:46;99275.31;;;21.34;74.52
73297;BME280;61524;50.938;11.396;2022-10-30T14:13:18;99287.13;;;21.30;75.10
73297;BME280;61524;50.938;11.396;2022-10-30T14:15:45;99282.09;;;21.23;75.13
73297;BME280;61524;50.938;11.396;2022-10-30T14:20:40;99269.28;;;21.15;75.77
73297;BME280;61524;50.938;11.396;2022-10-30T14:23:07;99281.50;;;21.04;76.17
73297;BME280;61524;50.938;11.396;2022-10-30T14:25:37;99277.84;;;21.08;76.04
73297;BME280;61524;50.938;11.396;2022-10-30T14:28:03;99278.97;;;20.85;76.67
73297;BME280;61524;50.938;11.396;2022-10-30T14:30:28;99273.34;;;20.81;76.76
73297;BME280;61524;50.938;11.396;2022-10-30T14:32:56;99272.88;;;20.79;77.10
73297;BME280;61524;50.938;11.396;2022-10-30T14:35:30;99272.19;;;20.74;77.12
73297;BME280;61524;50.938;11.396;2022-10-30T14:38:14;99276.06;;;20.59;78.32
73297;BME280;61524;50.938;11.396;2022-10-30T14:43:25;99272.69;;;20.39;78.77
73297;BME280;61524;50.938;11.396;2022-10-30T14:46:00;99273.00;;;20.24;79.05
73297;BME280;61524;50.938;11.396;2022-10-30T14:51:18;99267.00;;;20.00;81.14
73297;BME280;61524;50.938;11.396;2022-10-30T14:54:21;99270.03;;;19.84;82.21
73297;BME280;61524;50.938;11.396;2022-10-30T14:56:49;99263.00;;;19.70;82.79
73297;BME280;61524;50.938;11.396;2022-10-30T15:09:26;99275.25;;;18.88;86.03
73297;BME280;61524;50.938;11.396;2022-10-30T15:14:46;99275.09;;;18.60;88.87
73297;BME280;61524;50.938;11.396;2022-10-30T15:19:51;99270.28;;;18.20;90.57
73297;BME280;61524;50.938;11.396;2022-10-30T15:22:19;99274.03;;;18.00;91.15